sensor_id;sensor_type;location;lat;lon;timestamp;P1;durP1;ratioP1;P2;durP2;ratioP2
61487;SDS011;47351;53.326;-6.298;2022-08-03T00:02:22;6.60;;;2.00;;
61487;SDS011;47351;53.326;-6.298;2022-08-03T00:04:56;7.10;;;2.20;;
61487;SDS011;47351;53.326;-6.298;2022-08-03T00:07:27;6.40;;;2.10;;
61487;SDS011;47351;53.326;-6.298;2022-08-03T00:09:59;4.30;;;1.80;;
61487;SDS011;47351;53.326;-6.298;2022-08-03T00:12:31;7.20;;;2.10;;
61487;SDS011;47351;53.326;-6.298;2022-08-03T00:15:04;7.00;;;2.20;;
61487;SDS011;47351;53.326;-6.298;2022-08-03T00:17:43;6.30;;;2.40;;
61487;SDS011;47351;53.326;-6.298;2022-08-03T00:22:56;5.50;;;2.40;;
61487;SDS011;47351;53.326;-6.298;2022-08-03T00:25:28;8.50;;;2.40;;
61487;SDS011;47351;53.326;-6.298;2022-08-03T00:27:59;4.70;;;1.80;;
61487;SDS011;47351;53.326;-6.298;2022-08-03T00:30:31;4.20;;;1.70;;
61487;SDS011;47351;53.326;-6.298;2022-08-03T00:33:03;5.60;;;1.80;;
61487;SDS011;47351;53.326;-6.298;2022-08-03T00:35:37;5.70;;;2.00;;
61487;SDS011;47351;53.326;-6.298;2022-08-03T00:38:17;6.20;;;2.10;;
61487;SDS011;47351;53.326;-6.298;2022-08-03T00:40:49;6.10;;;2.20;;
61487;SDS011;47351;53.326;-6.298;2022-08-03T00:43:23;5.40;;;2.00;;
61487;SDS011;47351;53.326;-6.298;2022-08-03T00:45:55;4.90;;;1.80;;
61487;SDS011;47351;53.326;-6.298;2022-08-03T00:48:26;6.60;;;1.90;;
61487;SDS011;47351;53.326;-6.298;2022-08-03T00:51:01;3.70;;;1.70;;
61487;SDS011;47351;53.326;-6.298;2022-08-03T00:53:32;5.20;;;2.00;;
61487;SDS011;47351;53.326;-6.298;2022-08-03T00:56:05;7.60;;;2.10;;
61487;SDS011;47351;53.326;-6.298;2022-08-03T00:58:37;6.30;;;2.00;;
61487;SDS011;47351;53.326;-6.298;2022-08-03T01:01:08;5.00;;;2.00;;
61487;SDS011;47351;53.326;-6.298;2022-08-03T01:03:40;5.30;;;2.10;;
61487;SDS011;47351;53.326;-6.298;2022-08-03T01:06:16;7.50;;;2.20;;
61487;SDS011;47351;53.326;-6.298;2022-08-03T01:08:53;8.30;;;2.60;;
61487;SDS011;47351;53.326;-6.298;2022-08-03T01:11:33;6.10;;;2.30;;
61487;SDS011;47351;53.326;-6.298;2022-08-03T01:14:33;7.50;;;2.30;;
61487;SDS011;47351;53.326;-6.298;2022-08-03T01:17:13;6.70;;;1.90;;
61487;SDS011;47351;53.326;-6.298;2022-08-03T01:19:53;5.90;;;2.20;;
61487;SDS011;47351;53.326;-6.298;2022-08-03T01:25:30;6.50;;;2.10;;
61487;SDS011;47351;53.326;-6.298;2022-08-03T01:28:18;7.00;;;2.00;;
61487;SDS011;47351;53.326;-6.298;2022-08-03T01:30:58;6.70;;;2.30;;
61487;SDS011;47351;53.326;-6.298;2022-08-03T01:33:34;6.50;;;1.90;;
61487;SDS011;47351;53.326;-6.298;2022-08-03T01:36:10;4.30;;;1.70;;
61487;SDS011;47351;53.326;-6.298;2022-08-03T01:38:47;6.00;;;2.00;;
61487;SDS011;47351;53.326;-6.298;2022-08-03T01:41:24;6.80;;;1.90;;
61487;SDS011;47351;53.326;-6.298;2022-08-03T01:43:58;3.40;;;1.90;;
61487;SDS011;47351;53.326;-6.298;2022-08-03T01:46:52;5.00;;;1.80;;
61487;SDS011;47351;53.326;-6.298;2022-08-03T01:49:27;7.00;;;1.90;;
61487;SDS011;47351;53.326;-6.298;2022-08-03T01:52:00;5.90;;;2.00;;
61487;SDS011;47351;53.326;-6.298;2022-08-03T01:54:35;7.20;;;2.10;;
61487;SDS011;47351;53.326;-6.298;2022-08-03T01:57:10;6.80;;;1.80;;
61487;SDS011;47351;53.326;-6.298;2022-08-03T01:59:51;7.60;;;2.30;;
61487;SDS011;47351;53.326;-6.298;2022-08-03T02:02:27;4.60;;;1.80;;
61487;SDS011;47351;53.326;-6.298;2022-08-03T02:05:02;7.50;;;2.10;;
61487;SDS011;47351;53.326;-6.298;2022-08-03T02:07:51;5.60;;;1.90;;
61487;SDS011;47351;53.326;-6.298;2022-08-03T02:10:22;5.70;;;1.90;;
61487;SDS011;47351;53.326;-6.298;2022-08-03T02:13:03;7.70;;;2.40;;
61487;SDS011;47351;53.326;-6.298;2022-08-03T02:15:39;7.30;;;2.20;;
61487;SDS011;47351;53.326;-6.298;2022-08-03T02:18:12;5.00;;;2.20;;
61487;SDS011;47351;53.326;-6.298;2022-08-03T02:20:46;8.20;;;2.30;;
61487;SDS011;47351;53.326;-6.298;2022-08-03T02:23:19;5.80;;;1.90;;
61487;SDS011;47351;53.326;-6.298;2022-08-03T02:25:52;7.20;;;2.20;;
61487;SDS011;47351;53.326;-6.298;2022-08-03T02:28:30;5.70;;;1.70;;
61487;SDS011;47351;53.326;-6.298;2022-08-03T02:31:06;6.50;;;2.10;;
61487;SDS011;47351;53.326;-6.298;2022-08-03T02:33:42;6.40;;;2.00;;
61487;SDS011;47351;53.326;-6.298;2022-08-03T02:36:18;5.90;;;2.20;;
61487;SDS011;47351;53.326;-6.298;2022-08-03T02:38:53;5.80;;;2.10;;
61487;SDS011;47351;53.326;-6.298;2022-08-03T02:41:28;5.10;;;2.00;;
61487;SDS011;47351;53.326;-6.298;2022-08-03T02:44:06;6.10;;;2.10;;
61487;SDS011;47351;53.326;-6.298;2022-08-03T02:46:41;5.00;;;1.60;;
61487;SDS011;47351;53.326;-6.298;2022-08-03T02:49:15;7.50;;;1.70;;
61487;SDS011;47351;53.326;-6.298;2022-08-03T02:52:09;6.00;;;1.60;;
61487;SDS011;47351;53.326;-6.298;2022-08-03T02:54:43;7.90;;;1.70;;
61487;SDS011;47351;53.326;-6.298;2022-08-03T02:57:15;4.30;;;1.50;;
61487;SDS011;47351;53.326;-6.298;2022-08-03T02:59:48;6.10;;;1.60;;
61487;SDS011;47351;53.326;-6.298;2022-08-03T03:02:20;7.60;;;2.00;;
61487;SDS011;47351;53.326;-6.298;2022-08-03T03:04:52;7.50;;;2.00;;
61487;SDS011;47351;53.326;-6.298;2022-08-03T03:07:46;8.50;;;1.90;;
61487;SDS011;47351;53.326;-6.298;2022-08-03T03:10:20;5.70;;;1.60;;
61487;SDS011;47351;53.326;-6.298;2022-08-03T03:12:54;5.30;;;1.50;;
61487;SDS011;47351;53.326;-6.298;2022-08-03T03:15:26;5.60;;;1.70;;
61487;SDS011;47351;53.326;-6.298;2022-08-03T03:18:00;7.00;;;2.00;;
61487;SDS011;47351;53.326;-6.298;2022-08-03T03:20:32;5.40;;;1.80;;
61487;SDS011;47351;53.326;-6.298;2022-08-03T03:23:05;7.60;;;2.30;;
61487;SDS011;47351;53.326;-6.298;2022-08-03T03:25:37;5.80;;;1.70;;
61487;SDS011;47351;53.326;-6.298;2022-08-03T03:28:10;6.90;;;2.30;;
61487;SDS011;47351;53.326;-6.298;2022-08-03T03:30:49;8.20;;;1.70;;
61487;SDS011;47351;53.326;-6.298;2022-08-03T03:33:21;7.10;;;2.00;;
61487;SDS011;47351;53.326;-6.298;2022-08-03T03:35:55;5.90;;;1.50;;
61487;SDS011;47351;53.326;-6.298;2022-08-03T03:38:28;10.20;;;1.80;;
61487;SDS011;47351;53.326;-6.298;2022-08-03T03:41:00;5.70;;;2.00;;
61487;SDS011;47351;53.326;-6.298;2022-08-03T03:43:33;6.20;;;1.60;;
61487;SDS011;47351;53.326;-6.298;2022-08-03T03:46:04;7.70;;;1.90;;
61487;SDS011;47351;53.326;-6.298;2022-08-03T03:48:36;5.50;;;1.40;;
61487;SDS011;47351;53.326;-6.298;2022-08-03T03:51:09;6.80;;;1.60;;
61487;SDS011;47351;53.326;-6.298;2022-08-03T03:53:41;5.90;;;1.70;;
61487;SDS011;47351;53.326;-6.298;2022-08-03T03:56:24;7.80;;;1.80;;
61487;SDS011;47351;53.326;-6.298;2022-08-03T03:58:57;6.70;;;1.80;;
61487;SDS011;47351;53.326;-6.298;2022-08-03T04:01:28;6.80;;;1.40;;
61487;SDS011;47351;53.326;-6.298;2022-08-03T04:04:00;6.50;;;1.60;;
61487;SDS011;47351;53.326;-6.298;2022-08-03T04:06:46;7.20;;;1.30;;
61487;SDS011;47351;53.326;-6.298;2022-08-03T04:09:35;3.00;;;1.10;;
61487;SDS011;47351;53.326;-6.298;2022-08-03T04:12:41;10.60;;;1.70;;
61487;SDS011;47351;53.326;-6.298;2022-08-03T04:15:21;5.50;;;1.40;;
61487;SDS011;47351;53.326;-6.298;2022-08-03T04:17:54;5.20;;;1.40;;
61487;SDS011;47351;53.326;-6.298;2022-08-03T04:20:28;5.40;;;1.10;;
61487;SDS011;47351;53.326;-6.298;2022-08-03T04:23:03;7.70;;;1.60;;
61487;SDS011;47351;53.326;-6.298;2022-08-03T04:25:46;6.70;;;1.60;;
61487;SDS011;47351;53.326;-6.298;2022-08-03T04:28:31;5.80;;;1.30;;
61487;SDS011;47351;53.326;-6.298;2022-08-03T04:31:06;5.70;;;1.50;;
61487;SDS011;47351;53.326;-6.298;2022-08-03T04:33:38;5.50;;;1.40;;
61487;SDS011;47351;53.326;-6.298;2022-08-03T04:36:11;6.70;;;1.40;;
61487;SDS011;47351;53.326;-6.298;2022-08-03T04:38:49;8.90;;;1.60;;
61487;SDS011;47351;53.326;-6.298;2022-08-03T04:41:29;6.00;;;1.60;;
61487;SDS011;47351;53.326;-6.298;2022-08-03T04:44:27;5.00;;;1.30;;
61487;SDS011;47351;53.326;-6.298;2022-08-03T04:47:06;6.20;;;1.40;;
61487;SDS011;47351;53.326;-6.298;2022-08-03T04:49:38;8.30;;;1.60;;
61487;SDS011;47351;53.326;-6.298;2022-08-03T04:52:16;7.40;;;1.50;;
61487;SDS011;47351;53.326;-6.298;2022-08-03T04:54:48;8.10;;;1.50;;
61487;SDS011;47351;53.326;-6.298;2022-08-03T04:57:22;5.30;;;1.40;;
61487;SDS011;47351;53.326;-6.298;2022-08-03T04:59:54;6.90;;;1.50;;
61487;SDS011;47351;53.326;-6.298;2022-08-03T05:02:30;6.70;;;1.70;;
61487;SDS011;47351;53.326;-6.298;2022-08-03T05:05:04;5.00;;;1.30;;
61487;SDS011;47351;53.326;-6.298;2022-08-03T05:07:38;6.20;;;1.50;;
61487;SDS011;47351;53.326;-6.298;2022-08-03T05:10:11;5.60;;;1.60;;
61487;SDS011;47351;53.326;-6.298;2022-08-03T05:12:44;5.40;;;1.60;;
61487;SDS011;47351;53.326;-6.298;2022-08-03T05:15:22;5.20;;;1.40;;
61487;SDS011;47351;53.326;-6.298;2022-08-03T05:17:54;5.30;;;1.40;;
61487;SDS011;47351;53.326;-6.298;2022-08-03T05:20:26;6.20;;;1.50;;
61487;SDS011;47351;53.326;-6.298;2022-08-03T05:22:58;7.90;;;1.60;;
61487;SDS011;47351;53.326;-6.298;2022-08-03T05:28:17;9.20;;;1.50;;
61487;SDS011;47351;53.326;-6.298;2022-08-03T05:30:59;5.60;;;1.40;;
61487;SDS011;47351;53.326;-6.298;2022-08-03T05:33:51;6.80;;;1.70;;
61487;SDS011;47351;53.326;-6.298;2022-08-03T05:36:32;6.60;;;1.60;;
61487;SDS011;47351;53.326;-6.298;2022-08-03T05:39:07;8.70;;;1.50;;
61487;SDS011;47351;53.326;-6.298;2022-08-03T05:41:41;6.40;;;1.10;;
61487;SDS011;47351;53.326;-6.298;2022-08-03T05:44:13;6.50;;;1.30;;
61487;SDS011;47351;53.326;-6.298;2022-08-03T05:46:45;7.50;;;1.60;;
61487;SDS011;47351;53.326;-6.298;2022-08-03T05:49:17;8.40;;;1.80;;
61487;SDS011;47351;53.326;-6.298;2022-08-03T05:51:52;8.50;;;1.70;;
61487;SDS011;47351;53.326;-6.298;2022-08-03T05:54:41;6.60;;;1.70;;
61487;SDS011;47351;53.326;-6.298;2022-08-03T05:57:24;8.60;;;1.50;;
61487;SDS011;47351;53.326;-6.298;2022-08-03T05:59:56;8.10;;;1.80;;
61487;SDS011;47351;53.326;-6.298;2022-08-03T06:02:40;8.70;;;1.60;;
61487;SDS011;47351;53.326;-6.298;2022-08-03T06:05:14;6.50;;;1.80;;
61487;SDS011;47351;53.326;-6.298;2022-08-03T06:07:48;8.90;;;1.70;;
61487;SDS011;47351;53.326;-6.298;2022-08-03T06:10:20;6.40;;;1.90;;
61487;SDS011;47351;53.326;-6.298;2022-08-03T06:13:08;8.20;;;1.60;;
61487;SDS011;47351;53.326;-6.298;2022-08-03T06:15:39;8.10;;;1.60;;
61487;SDS011;47351;53.326;-6.298;2022-08-03T06:18:10;6.30;;;1.50;;
61487;SDS011;47351;53.326;-6.298;2022-08-03T06:20:42;8.50;;;1.60;;
61487;SDS011;47351;53.326;-6.298;2022-08-03T06:23:16;6.70;;;1.40;;
61487;SDS011;47351;53.326;-6.298;2022-08-03T06:25:48;6.90;;;1.40;;
61487;SDS011;47351;53.326;-6.298;2022-08-03T06:28:20;7.40;;;1.70;;
61487;SDS011;47351;53.326;-6.298;2022-08-03T06:31:16;6.60;;;1.40;;
61487;SDS011;47351;53.326;-6.298;2022-08-03T06:33:55;8.10;;;1.60;;
61487;SDS011;47351;53.326;-6.298;2022-08-03T06:36:49;5.00;;;1.40;;
61487;SDS011;47351;53.326;-6.298;2022-08-03T06:39:32;7.70;;;1.90;;
61487;SDS011;47351;53.326;-6.298;2022-08-03T06:42:06;6.30;;;1.30;;
61487;SDS011;47351;53.326;-6.298;2022-08-03T06:44:40;10.10;;;1.90;;
61487;SDS011;47351;53.326;-6.298;2022-08-03T06:47:16;9.70;;;1.70;;
61487;SDS011;47351;53.326;-6.298;2022-08-03T06:49:48;10.00;;;1.50;;
61487;SDS011;47351;53.326;-6.298;2022-08-03T06:52:41;6.40;;;1.40;;
61487;SDS011;47351;53.326;-6.298;2022-08-03T06:55:16;8.60;;;1.80;;
61487;SDS011;47351;53.326;-6.298;2022-08-03T06:57:48;10.10;;;1.70;;
61487;SDS011;47351;53.326;-6.298;2022-08-03T07:00:28;11.60;;;1.70;;
61487;SDS011;47351;53.326;-6.298;2022-08-03T07:03:00;8.50;;;1.50;;
61487;SDS011;47351;53.326;-6.298;2022-08-03T07:05:34;9.80;;;1.50;;
61487;SDS011;47351;53.326;-6.298;2022-08-03T07:08:09;9.50;;;1.70;;
61487;SDS011;47351;53.326;-6.298;2022-08-03T07:10:44;8.90;;;1.70;;
61487;SDS011;47351;53.326;-6.298;2022-08-03T07:13:15;8.50;;;1.90;;
61487;SDS011;47351;53.326;-6.298;2022-08-03T07:15:49;11.70;;;2.00;;
61487;SDS011;47351;53.326;-6.298;2022-08-03T07:18:23;10.00;;;1.60;;
61487;SDS011;47351;53.326;-6.298;2022-08-03T07:20:57;14.00;;;2.40;;
61487;SDS011;47351;53.326;-6.298;2022-08-03T07:23:31;12.90;;;1.90;;
61487;SDS011;47351;53.326;-6.298;2022-08-03T07:26:03;11.20;;;2.00;;
61487;SDS011;47351;53.326;-6.298;2022-08-03T07:28:35;12.90;;;2.00;;
61487;SDS011;47351;53.326;-6.298;2022-08-03T07:31:06;10.00;;;1.90;;
61487;SDS011;47351;53.326;-6.298;2022-08-03T07:33:37;11.70;;;2.00;;
61487;SDS011;47351;53.326;-6.298;2022-08-03T07:36:09;15.50;;;2.50;;
61487;SDS011;47351;53.326;-6.298;2022-08-03T07:38:40;12.20;;;2.20;;
61487;SDS011;47351;53.326;-6.298;2022-08-03T07:41:12;11.00;;;1.80;;
61487;SDS011;47351;53.326;-6.298;2022-08-03T07:43:43;11.20;;;1.60;;
61487;SDS011;47351;53.326;-6.298;2022-08-03T07:46:16;10.70;;;1.90;;
61487;SDS011;47351;53.326;-6.298;2022-08-03T07:48:47;9.40;;;1.70;;
61487;SDS011;47351;53.326;-6.298;2022-08-03T07:51:19;11.70;;;1.80;;
61487;SDS011;47351;53.326;-6.298;2022-08-03T07:53:50;10.30;;;1.70;;
61487;SDS011;47351;53.326;-6.298;2022-08-03T07:56:24;10.70;;;1.80;;
61487;SDS011;47351;53.326;-6.298;2022-08-03T07:58:56;8.00;;;1.70;;
61487;SDS011;47351;53.326;-6.298;2022-08-03T08:01:29;6.60;;;1.20;;
61487;SDS011;47351;53.326;-6.298;2022-08-03T08:04:03;7.30;;;1.40;;
61487;SDS011;47351;53.326;-6.298;2022-08-03T08:06:35;6.40;;;1.20;;
61487;SDS011;47351;53.326;-6.298;2022-08-03T08:09:06;8.10;;;1.40;;
61487;SDS011;47351;53.326;-6.298;2022-08-03T08:11:38;7.40;;;1.40;;
61487;SDS011;47351;53.326;-6.298;2022-08-03T08:14:10;6.50;;;1.30;;
61487;SDS011;47351;53.326;-6.298;2022-08-03T08:16:41;6.20;;;1.20;;
61487;SDS011;47351;53.326;-6.298;2022-08-03T08:19:13;7.20;;;1.60;;
61487;SDS011;47351;53.326;-6.298;2022-08-03T08:21:46;7.00;;;1.30;;
61487;SDS011;47351;53.326;-6.298;2022-08-03T08:24:29;6.50;;;1.20;;
61487;SDS011;47351;53.326;-6.298;2022-08-03T08:27:01;7.00;;;1.30;;
61487;SDS011;47351;53.326;-6.298;2022-08-03T08:29:32;5.20;;;1.10;;
61487;SDS011;47351;53.326;-6.298;2022-08-03T08:32:14;4.60;;;1.20;;
61487;SDS011;47351;53.326;-6.298;2022-08-03T08:34:46;7.10;;;1.50;;
61487;SDS011;47351;53.326;-6.298;2022-08-03T08:37:18;5.00;;;1.40;;
61487;SDS011;47351;53.326;-6.298;2022-08-03T08:39:49;4.20;;;1.30;;
61487;SDS011;47351;53.326;-6.298;2022-08-03T08:42:20;5.40;;;1.30;;
61487;SDS011;47351;53.326;-6.298;2022-08-03T08:44:52;5.50;;;1.10;;
61487;SDS011;47351;53.326;-6.298;2022-08-03T08:47:25;7.10;;;1.10;;
61487;SDS011;47351;53.326;-6.298;2022-08-03T08:50:19;7.90;;;1.50;;
61487;SDS011;47351;53.326;-6.298;2022-08-03T08:52:55;7.00;;;1.50;;
61487;SDS011;47351;53.326;-6.298;2022-08-03T08:55:31;6.10;;;1.10;;
61487;SDS011;47351;53.326;-6.298;2022-08-03T08:58:23;8.50;;;1.10;;
61487;SDS011;47351;53.326;-6.298;2022-08-03T09:00:57;5.60;;;1.00;;
61487;SDS011;47351;53.326;-6.298;2022-08-03T09:03:28;4.10;;;0.90;;
61487;SDS011;47351;53.326;-6.298;2022-08-03T09:06:01;5.90;;;1.00;;
61487;SDS011;47351;53.326;-6.298;2022-08-03T09:08:34;5.10;;;1.00;;
61487;SDS011;47351;53.326;-6.298;2022-08-03T09:11:05;5.10;;;1.00;;
61487;SDS011;47351;53.326;-6.298;2022-08-03T09:13:39;5.00;;;1.00;;
61487;SDS011;47351;53.326;-6.298;2022-08-03T09:16:12;4.30;;;0.80;;
61487;SDS011;47351;53.326;-6.298;2022-08-03T09:18:45;5.40;;;1.10;;
61487;SDS011;47351;53.326;-6.298;2022-08-03T09:21:21;5.40;;;0.90;;
61487;SDS011;47351;53.326;-6.298;2022-08-03T09:24:00;6.20;;;1.10;;
61487;SDS011;47351;53.326;-6.298;2022-08-03T09:26:50;4.00;;;0.90;;
61487;SDS011;47351;53.326;-6.298;2022-08-03T09:29:21;4.60;;;0.90;;
61487;SDS011;47351;53.326;-6.298;2022-08-03T09:32:00;5.70;;;1.20;;
61487;SDS011;47351;53.326;-6.298;2022-08-03T09:34:33;4.60;;;1.00;;
61487;SDS011;47351;53.326;-6.298;2022-08-03T09:37:04;7.50;;;1.10;;
61487;SDS011;47351;53.326;-6.298;2022-08-03T09:39:44;5.80;;;1.00;;
61487;SDS011;47351;53.326;-6.298;2022-08-03T09:42:16;3.40;;;0.90;;
61487;SDS011;47351;53.326;-6.298;2022-08-03T09:44:51;3.90;;;0.70;;
61487;SDS011;47351;53.326;-6.298;2022-08-03T09:47:27;3.00;;;0.70;;
61487;SDS011;47351;53.326;-6.298;2022-08-03T09:50:02;4.10;;;0.90;;
61487;SDS011;47351;53.326;-6.298;2022-08-03T09:52:36;3.30;;;0.80;;
61487;SDS011;47351;53.326;-6.298;2022-08-03T09:55:19;4.70;;;0.80;;
61487;SDS011;47351;53.326;-6.298;2022-08-03T09:58:12;5.60;;;1.00;;
61487;SDS011;47351;53.326;-6.298;2022-08-03T10:00:53;7.90;;;2.00;;
61487;SDS011;47351;53.326;-6.298;2022-08-03T10:03:26;5.00;;;1.00;;
61487;SDS011;47351;53.326;-6.298;2022-08-03T10:05:59;4.80;;;1.00;;
61487;SDS011;47351;53.326;-6.298;2022-08-03T10:08:46;6.00;;;1.10;;
61487;SDS011;47351;53.326;-6.298;2022-08-03T10:11:36;3.90;;;1.00;;
61487;SDS011;47351;53.326;-6.298;2022-08-03T10:14:10;5.00;;;0.90;;
61487;SDS011;47351;53.326;-6.298;2022-08-03T10:16:58;5.70;;;1.10;;
61487;SDS011;47351;53.326;-6.298;2022-08-03T10:19:30;5.70;;;0.90;;
61487;SDS011;47351;53.326;-6.298;2022-08-03T10:22:04;3.60;;;0.80;;
61487;SDS011;47351;53.326;-6.298;2022-08-03T10:24:51;4.80;;;0.90;;
61487;SDS011;47351;53.326;-6.298;2022-08-03T10:27:37;4.60;;;0.80;;
61487;SDS011;47351;53.326;-6.298;2022-08-03T10:30:15;6.70;;;1.00;;
61487;SDS011;47351;53.326;-6.298;2022-08-03T10:32:54;6.70;;;0.90;;
61487;SDS011;47351;53.326;-6.298;2022-08-03T10:35:43;3.10;;;0.80;;
61487;SDS011;47351;53.326;-6.298;2022-08-03T10:38:24;2.80;;;0.70;;
61487;SDS011;47351;53.326;-6.298;2022-08-03T10:41:01;3.00;;;0.70;;
61487;SDS011;47351;53.326;-6.298;2022-08-03T10:43:47;4.00;;;1.00;;
61487;SDS011;47351;53.326;-6.298;2022-08-03T10:46:23;3.60;;;0.80;;
61487;SDS011;47351;53.326;-6.298;2022-08-03T10:48:57;3.40;;;0.80;;
61487;SDS011;47351;53.326;-6.298;2022-08-03T10:51:31;3.10;;;0.70;;
61487;SDS011;47351;53.326;-6.298;2022-08-03T10:54:03;3.30;;;0.70;;
61487;SDS011;47351;53.326;-6.298;2022-08-03T10:56:39;2.50;;;0.50;;
61487;SDS011;47351;53.326;-6.298;2022-08-03T10:59:57;2.30;;;0.50;;
61487;SDS011;47351;53.326;-6.298;2022-08-03T11:05:38;1.90;;;0.50;;
61487;SDS011;47351;53.326;-6.298;2022-08-03T11:08:18;3.20;;;0.40;;
61487;SDS011;47351;53.326;-6.298;2022-08-03T11:10:54;2.70;;;0.60;;
61487;SDS011;47351;53.326;-6.298;2022-08-03T11:13:30;2.70;;;0.60;;
61487;SDS011;47351;53.326;-6.298;2022-08-03T11:16:02;4.80;;;0.60;;
61487;SDS011;47351;53.326;-6.298;2022-08-03T11:18:57;3.10;;;0.50;;
61487;SDS011;47351;53.326;-6.298;2022-08-03T11:27:32;2.00;;;0.50;;
61487;SDS011;47351;53.326;-6.298;2022-08-03T11:30:07;3.30;;;0.40;;
61487;SDS011;47351;53.326;-6.298;2022-08-03T11:32:51;2.10;;;0.40;;
61487;SDS011;47351;53.326;-6.298;2022-08-03T11:35:30;2.80;;;0.40;;
61487;SDS011;47351;53.326;-6.298;2022-08-03T11:38:06;0.80;;;0.30;;
61487;SDS011;47351;53.326;-6.298;2022-08-03T11:40:43;3.00;;;0.50;;
61487;SDS011;47351;53.326;-6.298;2022-08-03T11:46:14;3.10;;;0.50;;
61487;SDS011;47351;53.326;-6.298;2022-08-03T11:49:01;2.90;;;0.50;;
61487;SDS011;47351;53.326;-6.298;2022-08-03T11:51:38;1.60;;;0.50;;
61487;SDS011;47351;53.326;-6.298;2022-08-03T11:54:09;1.70;;;0.50;;
61487;SDS011;47351;53.326;-6.298;2022-08-03T11:56:44;5.20;;;0.60;;
61487;SDS011;47351;53.326;-6.298;2022-08-03T11:59:17;4.10;;;0.50;;
61487;SDS011;47351;53.326;-6.298;2022-08-03T12:02:06;3.00;;;0.60;;
61487;SDS011;47351;53.326;-6.298;2022-08-03T12:04:49;1.90;;;0.50;;
61487;SDS011;47351;53.326;-6.298;2022-08-03T12:07:25;3.20;;;0.70;;
61487;SDS011;47351;53.326;-6.298;2022-08-03T12:10:18;2.50;;;0.60;;
61487;SDS011;47351;53.326;-6.298;2022-08-03T12:12:54;2.90;;;0.40;;
61487;SDS011;47351;53.326;-6.298;2022-08-03T12:15:36;4.70;;;0.50;;
61487;SDS011;47351;53.326;-6.298;2022-08-03T12:18:14;1.90;;;0.50;;
61487;SDS011;47351;53.326;-6.298;2022-08-03T12:20:48;4.70;;;0.40;;
61487;SDS011;47351;53.326;-6.298;2022-08-03T12:23:20;4.50;;;0.50;;
61487;SDS011;47351;53.326;-6.298;2022-08-03T12:25:52;1.00;;;0.40;;
61487;SDS011;47351;53.326;-6.298;2022-08-03T12:28:29;1.10;;;0.30;;
61487;SDS011;47351;53.326;-6.298;2022-08-03T12:31:05;2.00;;;0.60;;
61487;SDS011;47351;53.326;-6.298;2022-08-03T12:36:31;6.30;;;0.50;;
61487;SDS011;47351;53.326;-6.298;2022-08-03T12:39:05;2.00;;;0.60;;
61487;SDS011;47351;53.326;-6.298;2022-08-03T12:41:39;2.60;;;0.20;;
61487;SDS011;47351;53.326;-6.298;2022-08-03T12:44:10;1.90;;;0.30;;
61487;SDS011;47351;53.326;-6.298;2022-08-03T12:46:42;5.70;;;0.40;;
61487;SDS011;47351;53.326;-6.298;2022-08-03T12:49:15;3.90;;;0.40;;
61487;SDS011;47351;53.326;-6.298;2022-08-03T12:51:56;2.00;;;0.40;;
61487;SDS011;47351;53.326;-6.298;2022-08-03T12:54:34;2.40;;;0.30;;
61487;SDS011;47351;53.326;-6.298;2022-08-03T12:57:06;1.50;;;0.20;;
61487;SDS011;47351;53.326;-6.298;2022-08-03T12:59:43;1.60;;;0.40;;
61487;SDS011;47351;53.326;-6.298;2022-08-03T13:02:21;2.90;;;0.40;;
61487;SDS011;47351;53.326;-6.298;2022-08-03T13:04:54;0.70;;;0.20;;
61487;SDS011;47351;53.326;-6.298;2022-08-03T13:07:27;1.10;;;0.30;;
61487;SDS011;47351;53.326;-6.298;2022-08-03T13:10:25;1.90;;;0.30;;
61487;SDS011;47351;53.326;-6.298;2022-08-03T13:12:58;1.60;;;0.30;;
61487;SDS011;47351;53.326;-6.298;2022-08-03T13:15:31;2.20;;;0.30;;
61487;SDS011;47351;53.326;-6.298;2022-08-03T13:18:15;2.80;;;0.40;;
61487;SDS011;47351;53.326;-6.298;2022-08-03T13:20:46;4.00;;;0.30;;
61487;SDS011;47351;53.326;-6.298;2022-08-03T13:23:17;1.10;;;0.30;;
61487;SDS011;47351;53.326;-6.298;2022-08-03T13:25:50;2.30;;;0.40;;
61487;SDS011;47351;53.326;-6.298;2022-08-03T13:28:23;1.10;;;0.40;;
61487;SDS011;47351;53.326;-6.298;2022-08-03T13:30:54;1.00;;;0.50;;
61487;SDS011;47351;53.326;-6.298;2022-08-03T13:33:26;1.20;;;0.50;;
61487;SDS011;47351;53.326;-6.298;2022-08-03T13:35:58;1.80;;;0.50;;
61487;SDS011;47351;53.326;-6.298;2022-08-03T13:38:29;1.90;;;0.50;;
61487;SDS011;47351;53.326;-6.298;2022-08-03T13:41:01;2.80;;;0.50;;
61487;SDS011;47351;53.326;-6.298;2022-08-03T13:43:32;5.90;;;0.60;;
61487;SDS011;47351;53.326;-6.298;2022-08-03T13:46:04;1.70;;;0.40;;
61487;SDS011;47351;53.326;-6.298;2022-08-03T13:48:35;3.40;;;0.70;;
61487;SDS011;47351;53.326;-6.298;2022-08-03T13:51:06;3.40;;;0.60;;
61487;SDS011;47351;53.326;-6.298;2022-08-03T13:53:50;1.40;;;0.40;;
61487;SDS011;47351;53.326;-6.298;2022-08-03T13:56:21;1.90;;;0.30;;
61487;SDS011;47351;53.326;-6.298;2022-08-03T13:58:53;1.40;;;0.30;;
61487;SDS011;47351;53.326;-6.298;2022-08-03T14:01:25;0.40;;;0.20;;
61487;SDS011;47351;53.326;-6.298;2022-08-03T14:04:17;2.20;;;0.60;;
61487;SDS011;47351;53.326;-6.298;2022-08-03T14:07:16;1.20;;;0.30;;
61487;SDS011;47351;53.326;-6.298;2022-08-03T14:09:55;1.70;;;0.50;;
61487;SDS011;47351;53.326;-6.298;2022-08-03T14:12:32;1.40;;;0.40;;
61487;SDS011;47351;53.326;-6.298;2022-08-03T14:15:08;2.00;;;0.50;;
61487;SDS011;47351;53.326;-6.298;2022-08-03T14:20:51;1.60;;;0.40;;
61487;SDS011;47351;53.326;-6.298;2022-08-03T14:23:27;1.40;;;0.40;;
61487;SDS011;47351;53.326;-6.298;2022-08-03T14:26:00;2.80;;;0.60;;
61487;SDS011;47351;53.326;-6.298;2022-08-03T14:28:32;1.40;;;0.50;;
61487;SDS011;47351;53.326;-6.298;2022-08-03T14:31:04;3.40;;;0.50;;
61487;SDS011;47351;53.326;-6.298;2022-08-03T14:33:59;0.80;;;0.50;;
61487;SDS011;47351;53.326;-6.298;2022-08-03T14:36:49;2.50;;;0.50;;
61487;SDS011;47351;53.326;-6.298;2022-08-03T14:39:42;1.80;;;0.60;;
61487;SDS011;47351;53.326;-6.298;2022-08-03T14:43:22;2.30;;;0.60;;
61487;SDS011;47351;53.326;-6.298;2022-08-03T14:46:01;2.90;;;0.50;;
61487;SDS011;47351;53.326;-6.298;2022-08-03T14:48:41;2.40;;;0.60;;
61487;SDS011;47351;53.326;-6.298;2022-08-03T14:51:38;1.60;;;0.60;;
61487;SDS011;47351;53.326;-6.298;2022-08-03T14:57:09;2.40;;;0.50;;
61487;SDS011;47351;53.326;-6.298;2022-08-03T14:59:41;2.10;;;0.60;;
61487;SDS011;47351;53.326;-6.298;2022-08-03T15:02:24;2.50;;;0.50;;
61487;SDS011;47351;53.326;-6.298;2022-08-03T15:05:04;1.90;;;0.60;;
61487;SDS011;47351;53.326;-6.298;2022-08-03T15:07:37;2.40;;;0.60;;
61487;SDS011;47351;53.326;-6.298;2022-08-03T15:10:15;2.70;;;0.70;;
61487;SDS011;47351;53.326;-6.298;2022-08-03T15:12:54;1.80;;;0.50;;
61487;SDS011;47351;53.326;-6.298;2022-08-03T15:15:26;1.40;;;0.50;;
61487;SDS011;47351;53.326;-6.298;2022-08-03T15:17:57;1.90;;;0.60;;
61487;SDS011;47351;53.326;-6.298;2022-08-03T15:20:29;3.20;;;0.60;;
61487;SDS011;47351;53.326;-6.298;2022-08-03T15:23:15;2.80;;;0.60;;
61487;SDS011;47351;53.326;-6.298;2022-08-03T15:25:47;4.70;;;0.70;;
61487;SDS011;47351;53.326;-6.298;2022-08-03T15:28:39;1.30;;;0.60;;
61487;SDS011;47351;53.326;-6.298;2022-08-03T15:31:21;2.50;;;0.60;;
61487;SDS011;47351;53.326;-6.298;2022-08-03T15:33:53;1.80;;;0.70;;
61487;SDS011;47351;53.326;-6.298;2022-08-03T15:36:25;2.00;;;0.60;;
61487;SDS011;47351;53.326;-6.298;2022-08-03T15:39:00;2.10;;;0.60;;
61487;SDS011;47351;53.326;-6.298;2022-08-03T15:41:31;1.80;;;0.50;;
61487;SDS011;47351;53.326;-6.298;2022-08-03T15:44:03;2.40;;;0.50;;
61487;SDS011;47351;53.326;-6.298;2022-08-03T15:46:36;4.80;;;0.70;;
61487;SDS011;47351;53.326;-6.298;2022-08-03T15:49:08;1.70;;;0.50;;
61487;SDS011;47351;53.326;-6.298;2022-08-03T15:51:39;1.50;;;0.70;;
61487;SDS011;47351;53.326;-6.298;2022-08-03T15:54:11;2.30;;;0.60;;
61487;SDS011;47351;53.326;-6.298;2022-08-03T15:56:42;2.00;;;0.70;;
61487;SDS011;47351;53.326;-6.298;2022-08-03T15:59:47;2.50;;;0.60;;